sensor_id;sensor_type;location;lat;lon;timestamp;pressure;altitude;pressure_sealevel;temperature;humidity
13968;BME280;39536;52.198;9.920;2023-02-18T00:00:55;101043.88;;;7.36;100.00
13968;BME280;39536;52.198;9.920;2023-02-18T00:03:22;101049.88;;;7.40;100.00
13968;BME280;39536;52.198;9.920;2023-02-18T00:05:48;101052.47;;;7.40;100.00
13968;BME280;39536;52.198;9.920;2023-02-18T00:08:15;101055.09;;;7.38;100.00
13968;BME280;39536;52.198;9.920;2023-02-18T00:10:43;101040.38;;;7.40;100.00
13968;BME280;39536;52.198;9.920;2023-02-18T00:13:10;101027.38;;;7.44;100.00
13968;BME280;39536;52.198;9.920;2023-02-18T00:15:37;101036.84;;;7.46;100.00
13968;BME280;39536;52.198;9.920;2023-02-18T00:18:04;101057.59;;;7.46;100.00
13968;BME280;39536;52.198;9.920;2023-02-18T00:20:32;101040.28;;;7.50;100.00
13968;BME280;39536;52.198;9.920;2023-02-18T00:23:00;101050.63;;;7.50;100.00
13968;BME280;39536;52.198;9.920;2023-02-18T00:25:27;101042.91;;;7.47;100.00
13968;BME280;39536;52.198;9.920;2023-02-18T00:27:55;101034.31;;;7.43;100.00
13968;BME280;39536;52.198;9.920;2023-02-18T00:30:21;101037.81;;;7.39;100.00
13968;BME280;39536;52.198;9.920;2023-02-18T00:32:48;101048.13;;;7.44;100.00
13968;BME280;39536;52.198;9.920;2023-02-18T00:35:15;101040.38;;;7.40;100.00
13968;BME280;39536;52.198;9.920;2023-02-18T00:37:41;101041.31;;;7.33;100.00
13968;BME280;39536;52.198;9.920;2023-02-18T00:40:08;101037.00;;;7.35;100.00
13968;BME280;39536;52.198;9.920;2023-02-18T00:42:35;101043.91;;;7.33;100.00
13968;BME280;39536;52.198;9.920;2023-02-18T00:45:04;101059.44;;;7.35;100.00
13968;BME280;39536;52.198;9.920;2023-02-18T00:47:30;101056.00;;;7.36;100.00
13968;BME280;39536;52.198;9.920;2023-02-18T00:49:57;101051.66;;;7.36;100.00
13968;BME280;39536;52.198;9.920;2023-02-18T00:52:24;101052.50;;;7.38;100.00
13968;BME280;39536;52.198;9.920;2023-02-18T00:54:50;101043.00;;;7.39;100.00
13968;BME280;39536;52.198;9.920;2023-02-18T00:57:17;101045.59;;;7.37;100.00
13968;BME280;39536;52.198;9.920;2023-02-18T00:59:44;101052.50;;;7.37;100.00
13968;BME280;39536;52.198;9.920;2023-02-18T01:02:12;101055.97;;;7.37;100.00
13968;BME280;39536;52.198;9.920;2023-02-18T01:04:38;101055.16;;;7.32;100.00
13968;BME280;39536;52.198;9.920;2023-02-18T01:07:05;101048.22;;;7.36;100.00
13968;BME280;39536;52.198;9.920;2023-02-18T01:09:34;101070.72;;;7.32;100.00
13968;BME280;39536;52.198;9.920;2023-02-18T01:12:01;101057.78;;;7.29;100.00
13968;BME280;39536;52.198;9.920;2023-02-18T01:14:28;101056.06;;;7.30;100.00
13968;BME280;39536;52.198;9.920;2023-02-18T01:16:55;101056.88;;;7.32;100.00
13968;BME280;39536;52.198;9.920;2023-02-18T01:19:23;101056.09;;;7.27;100.00
13968;BME280;39536;52.198;9.920;2023-02-18T01:21:50;101065.50;;;7.35;100.00
13968;BME280;39536;52.198;9.920;2023-02-18T01:24:16;101061.13;;;7.39;100.00
13968;BME280;39536;52.198;9.920;2023-02-18T01:26:43;101057.66;;;7.42;100.00
13968;BME280;39536;52.198;9.920;2023-02-18T01:29:09;101064.63;;;7.36;100.00
13968;BME280;39536;52.198;9.920;2023-02-18T01:31:36;101056.88;;;7.33;100.00
13968;BME280;39536;52.198;9.920;2023-02-18T01:34:03;101047.38;;;7.35;100.00
13968;BME280;39536;52.198;9.920;2023-02-18T01:36:31;101046.41;;;7.41;100.00
13968;BME280;39536;52.198;9.920;2023-02-18T01:38:57;101049.84;;;7.45;100.00
13968;BME280;39536;52.198;9.920;2023-02-18T01:41:24;101058.44;;;7.48;100.00
13968;BME280;39536;52.198;9.920;2023-02-18T01:44:15;101051.53;;;7.47;100.00
13968;BME280;39536;52.198;9.920;2023-02-18T01:46:42;101051.59;;;7.41;100.00
13968;BME280;39536;52.198;9.920;2023-02-18T01:49:13;101036.88;;;7.45;100.00
13968;BME280;39536;52.198;9.920;2023-02-18T01:51:45;101041.13;;;7.52;100.00
13968;BME280;39536;52.198;9.920;2023-02-18T01:54:14;101042.00;;;7.51;100.00
13968;BME280;39536;52.198;9.920;2023-02-18T01:56:45;101039.41;;;7.49;100.00
13968;BME280;39536;52.198;9.920;2023-02-18T01:59:15;101041.03;;;7.58;100.00
13968;BME280;39536;52.198;9.920;2023-02-18T02:01:44;101043.72;;;7.52;100.00
13968;BME280;39536;52.198;9.920;2023-02-18T02:04:11;101028.13;;;7.55;100.00
13968;BME280;39536;52.198;9.920;2023-02-18T02:06:38;101034.13;;;7.58;100.00
13968;BME280;39536;52.198;9.920;2023-02-18T02:09:09;101019.44;;;7.57;100.00
13968;BME280;39536;52.198;9.920;2023-02-18T02:17:30;101012.41;;;7.66;100.00
13968;BME280;39536;52.198;9.920;2023-02-18T02:26:39;101006.38;;;7.65;100.00
13968;BME280;39536;52.198;9.920;2023-02-18T02:29:28;101000.25;;;7.69;100.00
13968;BME280;39536;52.198;9.920;2023-02-18T02:32:24;101007.22;;;7.67;100.00
13968;BME280;39536;52.198;9.920;2023-02-18T02:35:01;100998.63;;;7.63;100.00
13968;BME280;39536;52.198;9.920;2023-02-18T02:37:35;101013.22;;;7.69;100.00
13968;BME280;39536;52.198;9.920;2023-02-18T02:40:15;101021.94;;;7.65;100.00
13968;BME280;39536;52.198;9.920;2023-02-18T02:42:53;101008.97;;;7.65;100.00
13968;BME280;39536;52.198;9.920;2023-02-18T02:45:28;101003.78;;;7.65;100.00
13968;BME280;39536;52.198;9.920;2023-02-18T02:48:05;101007.22;;;7.67;100.00
13968;BME280;39536;52.198;9.920;2023-02-18T02:50:37;100994.31;;;7.64;100.00
13968;BME280;39536;52.198;9.920;2023-02-18T02:53:12;100998.69;;;7.59;100.00
13968;BME280;39536;52.198;9.920;2023-02-18T02:55:42;101002.09;;;7.62;100.00
13968;BME280;39536;52.198;9.920;2023-02-18T02:58:13;100990.81;;;7.65;100.00
13968;BME280;39536;52.198;9.920;2023-02-18T03:00:52;100989.13;;;7.64;100.00
13968;BME280;39536;52.198;9.920;2023-02-18T03:03:36;100988.19;;;7.68;100.00
13968;BME280;39536;52.198;9.920;2023-02-18T03:06:40;100976.13;;;7.66;100.00
13968;BME280;39536;52.198;9.920;2023-02-18T03:09:15;100977.84;;;7.67;100.00
13968;BME280;39536;52.198;9.920;2023-02-18T03:11:51;100980.44;;;7.67;100.00
13968;BME280;39536;52.198;9.920;2023-02-18T03:14:26;100980.41;;;7.68;100.00
13968;BME280;39536;52.198;9.920;2023-02-18T03:16:58;100970.03;;;7.70;100.00
13968;BME280;39536;52.198;9.920;2023-02-18T03:19:30;100963.88;;;7.75;100.00
13968;BME280;39536;52.198;9.920;2023-02-18T03:22:03;100971.66;;;7.75;100.00
13968;BME280;39536;52.198;9.920;2023-02-18T03:24:33;100968.34;;;7.67;100.00
13968;BME280;39536;52.198;9.920;2023-02-18T03:27:05;100964.00;;;7.66;100.00
13968;BME280;39536;52.198;9.920;2023-02-18T03:29:35;100966.59;;;7.68;100.00
13968;BME280;39536;52.198;9.920;2023-02-18T03:32:05;100958.75;;;7.72;100.00
13968;BME280;39536;52.198;9.920;2023-02-18T03:34:35;100947.47;;;7.75;100.00
13968;BME280;39536;52.198;9.920;2023-02-18T03:37:05;100938.78;;;7.79;100.00
13968;BME280;39536;52.198;9.920;2023-02-18T03:39:34;100931.00;;;7.77;100.00
13968;BME280;39536;52.198;9.920;2023-02-18T03:42:02;100922.34;;;7.78;100.00
13968;BME280;39536;52.198;9.920;2023-02-18T03:44:29;100921.44;;;7.81;100.00
13968;BME280;39536;52.198;9.920;2023-02-18T03:46:56;100915.28;;;7.88;100.00
13968;BME280;39536;52.198;9.920;2023-02-18T03:49:23;100905.84;;;7.84;100.00
13968;BME280;39536;52.198;9.920;2023-02-18T03:51:50;100918.81;;;7.85;100.00
13968;BME280;39536;52.198;9.920;2023-02-18T03:54:18;100910.25;;;7.79;100.00
13968;BME280;39536;52.198;9.920;2023-02-18T03:56:44;100920.56;;;7.83;100.00
13968;BME280;39536;52.198;9.920;2023-02-18T03:59:11;100927.44;;;7.86;100.00
13968;BME280;39536;52.198;9.920;2023-02-18T04:01:39;100907.56;;;7.85;100.00
13968;BME280;39536;52.198;9.920;2023-02-18T04:04:06;100911.03;;;7.85;100.00
13968;BME280;39536;52.198;9.920;2023-02-18T04:06:32;100909.31;;;7.83;100.00
13968;BME280;39536;52.198;9.920;2023-02-18T04:09:02;100896.31;;;7.86;100.00
13968;BME280;39536;52.198;9.920;2023-02-18T04:11:34;100897.13;;;7.88;100.00
13968;BME280;39536;52.198;9.920;2023-02-18T04:14:01;100902.31;;;7.90;100.00
13968;BME280;39536;52.198;9.920;2023-02-18T04:16:27;100897.13;;;7.88;100.00
13968;BME280;39536;52.198;9.920;2023-02-18T04:18:54;100895.47;;;7.85;100.00
13968;BME280;39536;52.198;9.920;2023-02-18T04:21:21;100890.31;;;7.82;100.00
13968;BME280;39536;52.198;9.920;2023-02-18T04:23:47;100887.78;;;7.78;100.00
13968;BME280;39536;52.198;9.920;2023-02-18T04:26:14;100898.25;;;7.73;100.00
13968;BME280;39536;52.198;9.920;2023-02-18T04:28:42;100892.16;;;7.74;100.00
13968;BME280;39536;52.198;9.920;2023-02-18T04:31:08;100893.16;;;7.66;100.00
13968;BME280;39536;52.198;9.920;2023-02-18T04:33:35;100897.50;;;7.65;100.00
13968;BME280;39536;52.198;9.920;2023-02-18T04:36:02;100888.81;;;7.66;100.00
13968;BME280;39536;52.198;9.920;2023-02-18T04:38:29;100894.91;;;7.65;100.00
13968;BME280;39536;52.198;9.920;2023-02-18T04:40:56;100895.75;;;7.66;100.00
13968;BME280;39536;52.198;9.920;2023-02-18T04:43:22;100896.56;;;7.69;100.00
13968;BME280;39536;52.198;9.920;2023-02-18T04:45:50;100887.88;;;7.72;100.00
13968;BME280;39536;52.198;9.920;2023-02-18T04:48:17;100879.19;;;7.74;100.00
13968;BME280;39536;52.198;9.920;2023-02-18T04:50:43;100873.91;;;7.82;100.00
13968;BME280;39536;52.198;9.920;2023-02-18T04:53:10;100862.75;;;7.77;100.00
13968;BME280;39536;52.198;9.920;2023-02-18T04:55:36;100861.84;;;7.79;100.00
13968;BME280;39536;52.198;9.920;2023-02-18T04:58:03;100867.78;;;7.86;100.00
13968;BME280;39536;52.198;9.920;2023-02-18T05:00:30;100857.38;;;7.89;100.00
13968;BME280;39536;52.198;9.920;2023-02-18T05:02:57;100846.88;;;7.95;100.00
13968;BME280;39536;52.198;9.920;2023-02-18T05:05:24;100847.72;;;7.96;100.00
13968;BME280;39536;52.198;9.920;2023-02-18T05:07:51;100847.69;;;7.99;100.00
13968;BME280;39536;52.198;9.920;2023-02-18T05:10:17;100841.53;;;8.04;100.00
13968;BME280;39536;52.198;9.920;2023-02-18T05:12:44;100840.59;;;8.08;100.00
13968;BME280;39536;52.198;9.920;2023-02-18T05:15:11;100832.81;;;8.08;100.00
13968;BME280;39536;52.198;9.920;2023-02-18T05:17:38;100835.41;;;8.10;100.00
13968;BME280;39536;52.198;9.920;2023-02-18T05:20:07;100830.97;;;8.15;100.00
13968;BME280;39536;52.198;9.920;2023-02-18T05:22:34;100827.56;;;8.13;100.00
13968;BME280;39536;52.198;9.920;2023-02-18T05:25:00;100825.03;;;8.08;100.00
13968;BME280;39536;52.198;9.920;2023-02-18T05:27:27;100820.69;;;8.10;100.00
13968;BME280;39536;52.198;9.920;2023-02-18T05:29:54;100819.72;;;8.15;100.00
13968;BME280;39536;52.198;9.920;2023-02-18T05:32:20;100815.44;;;8.14;100.00
13968;BME280;39536;52.198;9.920;2023-02-18T05:34:47;100811.16;;;8.11;100.00
13968;BME280;39536;52.198;9.920;2023-02-18T05:37:15;100803.31;;;8.13;100.00
13968;BME280;39536;52.198;9.920;2023-02-18T05:39:42;100808.63;;;8.08;100.00
13968;BME280;39536;52.198;9.920;2023-02-18T05:42:09;100802.53;;;8.10;100.00
13968;BME280;39536;52.198;9.920;2023-02-18T05:44:36;100792.09;;;8.12;100.00
13968;BME280;39536;52.198;9.920;2023-02-18T05:47:04;100797.22;;;8.15;100.00
13968;BME280;39536;52.198;9.920;2023-02-18T05:49:32;100798.06;;;8.17;100.00
13968;BME280;39536;52.198;9.920;2023-02-18T05:52:00;100788.50;;;8.19;100.00
13968;BME280;39536;52.198;9.920;2023-02-18T05:54:29;100788.50;;;8.19;100.00
13968;BME280;39536;52.198;9.920;2023-02-18T05:56:55;100785.84;;;8.24;100.00
13968;BME280;39536;52.198;9.920;2023-02-18T05:59:22;100781.44;;;8.27;100.00
13968;BME280;39536;52.198;9.920;2023-02-18T06:01:49;100772.75;;;8.28;100.00
13968;BME280;39536;52.198;9.920;2023-02-18T06:04:16;100765.84;;;8.29;100.00
13968;BME280;39536;52.198;9.920;2023-02-18T06:06:43;100762.31;;;8.31;100.00
13968;BME280;39536;52.198;9.920;2023-02-18T06:09:09;100759.63;;;8.36;100.00
13968;BME280;39536;52.198;9.920;2023-02-18T06:11:37;100762.25;;;8.34;100.00
13968;BME280;39536;52.198;9.920;2023-02-18T06:14:05;100751.13;;;8.29;100.00
13968;BME280;39536;52.198;9.920;2023-02-18T06:16:31;100753.69;;;8.31;100.00
13968;BME280;39536;52.198;9.920;2023-02-18T06:18:58;100753.78;;;8.26;100.00
13968;BME280;39536;52.198;9.920;2023-02-18T06:21:25;100752.94;;;8.26;100.00
13968;BME280;39536;52.198;9.920;2023-02-18T06:23:51;100743.34;;;8.28;100.00
13968;BME280;39536;52.198;9.920;2023-02-18T06:26:18;100735.63;;;8.26;100.00
13968;BME280;39536;52.198;9.920;2023-02-18T06:28:46;100730.38;;;8.28;100.00
13968;BME280;39536;52.198;9.920;2023-02-18T06:31:13;100724.31;;;8.29;100.00
13968;BME280;39536;52.198;9.920;2023-02-18T06:33:39;100732.84;;;8.34;100.00
13968;BME280;39536;52.198;9.920;2023-02-18T06:36:07;100724.34;;;8.27;100.00
13968;BME280;39536;52.198;9.920;2023-02-18T06:38:36;100714.78;;;8.29;100.00
13968;BME280;39536;52.198;9.920;2023-02-18T06:41:03;100717.41;;;8.28;100.00
13968;BME280;39536;52.198;9.920;2023-02-18T06:43:30;100708.78;;;8.27;100.00
13968;BME280;39536;52.198;9.920;2023-02-18T06:45:58;100703.47;;;8.33;100.00
13968;BME280;39536;52.198;9.920;2023-02-18T06:48:27;100696.56;;;8.32;100.00
13968;BME280;39536;52.198;9.920;2023-02-18T06:50:54;100692.16;;;8.36;100.00
13968;BME280;39536;52.198;9.920;2023-02-18T06:53:21;100688.66;;;8.37;100.00
13968;BME280;39536;52.198;9.920;2023-02-18T06:55:48;100676.50;;;8.42;100.00
13968;BME280;39536;52.198;9.920;2023-02-18T06:58:14;100675.56;;;8.45;100.00
13968;BME280;39536;52.198;9.920;2023-02-18T07:00:42;100673.00;;;8.43;100.00
13968;BME280;39536;52.198;9.920;2023-02-18T07:03:11;100660.00;;;8.43;100.00
13968;BME280;39536;52.198;9.920;2023-02-18T07:05:38;100659.03;;;8.49;100.00
13968;BME280;39536;52.198;9.920;2023-02-18T07:08:04;100651.19;;;8.52;100.00
13968;BME280;39536;52.198;9.920;2023-02-18T07:10:31;100642.41;;;8.56;100.00
13968;BME280;39536;52.198;9.920;2023-02-18T07:12:57;100637.22;;;8.56;100.00
13968;BME280;39536;52.198;9.920;2023-02-18T07:15:24;100631.13;;;8.59;100.00
13968;BME280;39536;52.198;9.920;2023-02-18T07:17:52;100626.72;;;8.62;100.00
13968;BME280;39536;52.198;9.920;2023-02-18T07:20:21;100623.97;;;8.68;100.00
13968;BME280;39536;52.198;9.920;2023-02-18T07:22:48;100615.31;;;8.68;100.00
13968;BME280;39536;52.198;9.920;2023-02-18T07:25:14;100600.59;;;8.68;100.00
13968;BME280;39536;52.198;9.920;2023-02-18T07:27:41;100605.69;;;8.73;100.00
13968;BME280;39536;52.198;9.920;2023-02-18T07:30:08;100597.63;;;8.84;100.00
13968;BME280;39536;52.198;9.920;2023-02-18T07:32:34;100594.06;;;8.88;100.00
13968;BME280;39536;52.198;9.920;2023-02-18T07:35:01;100579.91;;;8.99;100.00
13968;BME280;39536;52.198;9.920;2023-02-18T07:37:30;100579.59;;;9.13;100.00
13968;BME280;39536;52.198;9.920;2023-02-18T07:39:57;100567.19;;;9.23;100.00
13968;BME280;39536;52.198;9.920;2023-02-18T07:42:23;100570.34;;;9.34;100.00
13968;BME280;39536;52.198;9.920;2023-02-18T07:44:50;100570.19;;;9.40;100.00
13968;BME280;39536;52.198;9.920;2023-02-18T07:47:16;100566.56;;;9.46;100.00
13968;BME280;39536;52.198;9.920;2023-02-18T07:49:43;100576.09;;;9.47;100.00
13968;BME280;39536;52.198;9.920;2023-02-18T07:52:10;100570.81;;;9.48;100.00
13968;BME280;39536;52.198;9.920;2023-02-18T07:54:38;100570.59;;;9.56;100.00
13968;BME280;39536;52.198;9.920;2023-02-18T07:57:05;100572.16;;;9.63;100.00
13968;BME280;39536;52.198;9.920;2023-02-18T07:59:31;100569.41;;;9.68;100.00
13968;BME280;39536;52.198;9.920;2023-02-18T08:01:58;100574.50;;;9.73;100.00
13968;BME280;39536;52.198;9.920;2023-02-18T08:04:24;100564.94;;;9.73;100.00
13968;BME280;39536;52.198;9.920;2023-02-18T08:06:51;100551.88;;;9.75;100.00
13968;BME280;39536;52.198;9.920;2023-02-18T08:09:17;100545.81;;;9.76;100.00
13968;BME280;39536;52.198;9.920;2023-02-18T08:11:45;100545.66;;;9.80;100.00
13968;BME280;39536;52.198;9.920;2023-02-18T08:14:12;100531.72;;;9.83;100.00
13968;BME280;39536;52.198;9.920;2023-02-18T08:16:38;100547.25;;;9.84;100.00
13968;BME280;39536;52.198;9.920;2023-02-18T08:19:05;100531.56;;;9.87;100.00
13968;BME280;39536;52.198;9.920;2023-02-18T08:21:32;100540.19;;;9.89;100.00
13968;BME280;39536;52.198;9.920;2023-02-18T08:23:59;100543.63;;;9.90;100.00
13968;BME280;39536;52.198;9.920;2023-02-18T08:26:25;100542.69;;;9.92;100.00
13968;BME280;39536;52.198;9.920;2023-02-18T08:28:53;100533.19;;;9.91;100.00
13968;BME280;39536;52.198;9.920;2023-02-18T08:31:21;100536.53;;;9.95;100.00
13968;BME280;39536;52.198;9.920;2023-02-18T08:33:49;100522.69;;;9.94;100.00
13968;BME280;39536;52.198;9.920;2023-02-18T08:36:16;100527.22;;;9.88;100.00
13968;BME280;39536;52.198;9.920;2023-02-18T08:38:43;100511.56;;;9.89;100.00
13968;BME280;39536;52.198;9.920;2023-02-18T08:41:09;100514.16;;;9.89;100.00
13968;BME280;39536;52.198;9.920;2023-02-18T08:43:36;100538.31;;;9.94;100.00
13968;BME280;39536;52.198;9.920;2023-02-18T08:46:04;100528.88;;;9.90;100.00
13968;BME280;39536;52.198;9.920;2023-02-18T08:48:31;100519.41;;;9.88;100.00
13968;BME280;39536;52.198;9.920;2023-02-18T08:50:57;100520.94;;;9.95;100.00
13968;BME280;39536;52.198;9.920;2023-02-18T08:53:24;100515.63;;;9.98;100.00
13968;BME280;39536;52.198;9.920;2023-02-18T08:55:50;100513.78;;;10.02;100.00
13968;BME280;39536;52.198;9.920;2023-02-18T08:58:17;100511.84;;;10.08;100.00
13968;BME280;39536;52.198;9.920;2023-02-18T09:00:46;100500.25;;;10.18;100.00
13968;BME280;39536;52.198;9.920;2023-02-18T09:03:14;100502.81;;;10.20;100.00
13968;BME280;39536;52.198;9.920;2023-02-18T09:05:41;100496.75;;;10.20;100.00
13968;BME280;39536;52.198;9.920;2023-02-18T09:08:08;100497.38;;;10.28;100.00
13968;BME280;39536;52.198;9.920;2023-02-18T09:10:34;100495.69;;;10.27;100.00
13968;BME280;39536;52.198;9.920;2023-02-18T09:13:01;100496.44;;;10.30;100.00
13968;BME280;39536;52.198;9.920;2023-02-18T09:18:50;100490.09;;;10.39;100.00
13968;BME280;39536;52.198;9.920;2023-02-18T09:21:17;100477.91;;;10.39;100.00
13968;BME280;39536;52.198;9.920;2023-02-18T09:23:45;100461.41;;;10.40;100.00
13968;BME280;39536;52.198;9.920;2023-02-18T09:26:17;100463.00;;;10.45;100.00
13968;BME280;39536;52.198;9.920;2023-02-18T09:28:45;100454.38;;;10.43;100.00
13968;BME280;39536;52.198;9.920;2023-02-18T09:31:15;100452.38;;;10.51;100.00
13968;BME280;39536;52.198;9.920;2023-02-18T09:33:44;100450.56;;;10.53;100.00
13968;BME280;39536;52.198;9.920;2023-02-18T09:36:12;100475.50;;;10.60;100.00
13968;BME280;39536;52.198;9.920;2023-02-18T09:38:39;100474.47;;;10.66;100.00
13968;BME280;39536;52.198;9.920;2023-02-18T09:41:08;100451.75;;;10.69;100.00
13968;BME280;39536;52.198;9.920;2023-02-18T09:43:41;100479.47;;;10.72;100.00
13968;BME280;39536;52.198;9.920;2023-02-18T09:46:14;100455.03;;;10.74;100.00
13968;BME280;39536;52.198;9.920;2023-02-18T09:48:43;100430.00;;;10.70;100.00
13968;BME280;39536;52.198;9.920;2023-02-18T09:51:14;100462.16;;;10.69;100.00
13968;BME280;39536;52.198;9.920;2023-02-18T09:53:41;100459.56;;;10.69;100.00
13968;BME280;39536;52.198;9.920;2023-02-18T09:56:11;100451.78;;;10.68;100.00
13968;BME280;39536;52.198;9.920;2023-02-18T09:58:39;100443.97;;;10.68;100.00
13968;BME280;39536;52.198;9.920;2023-02-18T10:01:13;100443.19;;;10.66;100.00
13968;BME280;39536;52.198;9.920;2023-02-18T10:03:41;100434.47;;;10.67;100.00
13968;BME280;39536;52.198;9.920;2023-02-18T10:06:10;100444.16;;;10.63;100.00
13968;BME280;39536;52.198;9.920;2023-02-18T10:08:44;100443.31;;;10.62;100.00
13968;BME280;39536;52.198;9.920;2023-02-18T10:11:12;100446.88;;;10.58;100.00
13968;BME280;39536;52.198;9.920;2023-02-18T10:13:41;100437.41;;;10.56;100.00
13968;BME280;39536;52.198;9.920;2023-02-18T10:16:08;100427.00;;;10.56;100.00
13968;BME280;39536;52.198;9.920;2023-02-18T10:18:40;100429.69;;;10.54;100.00
13968;BME280;39536;52.198;9.920;2023-02-18T10:21:09;100446.88;;;10.58;100.00
13968;BME280;39536;52.198;9.920;2023-02-18T10:23:39;100438.94;;;10.63;100.00
13968;BME280;39536;52.198;9.920;2023-02-18T10:26:14;100434.47;;;10.67;100.00
13968;BME280;39536;52.198;9.920;2023-02-18T10:28:42;100431.69;;;10.71;100.00
13968;BME280;39536;52.198;9.920;2023-02-18T10:31:13;100430.59;;;10.78;100.00
13968;BME280;39536;52.198;9.920;2023-02-18T10:33:44;100422.72;;;10.80;100.00
13968;BME280;39536;52.198;9.920;2023-02-18T10:36:22;100434.06;;;10.77;100.00
13968;BME280;39536;52.198;9.920;2023-02-18T10:39:10;100421.16;;;10.74;100.00
13968;BME280;39536;52.198;9.920;2023-02-18T10:41:53;100428.94;;;10.76;100.00
13968;BME280;39536;52.198;9.920;2023-02-18T10:44:29;100436.91;;;10.71;100.00
13968;BME280;39536;52.198;9.920;2023-02-18T10:47:05;100418.66;;;10.71;100.00
13968;BME280;39536;52.198;9.920;2023-02-18T10:49:57;100424.09;;;10.65;100.00
13968;BME280;39536;52.198;9.920;2023-02-18T10:52:27;100411.25;;;10.60;100.00
13968;BME280;39536;52.198;9.920;2023-02-18T10:54:58;100425.53;;;10.49;100.00
13968;BME280;39536;52.198;9.920;2023-02-18T10:57:26;100434.38;;;10.43;100.00
13968;BME280;39536;52.198;9.920;2023-02-18T10:59:59;100419.84;;;10.37;100.00
13968;BME280;39536;52.198;9.920;2023-02-18T11:02:28;100418.94;;;10.38;100.00
13968;BME280;39536;52.198;9.920;2023-02-18T11:04:58;100427.75;;;10.34;100.00
13968;BME280;39536;52.198;9.920;2023-02-18T11:07:29;100405.09;;;10.36;100.00
13968;BME280;39536;52.198;9.920;2023-02-18T11:09:57;100420.72;;;10.36;100.00
13968;BME280;39536;52.198;9.920;2023-02-18T11:12:40;100406.72;;;10.40;100.00
13968;BME280;39536;52.198;9.920;2023-02-18T11:15:16;100406.72;;;10.40;100.00
13968;BME280;39536;52.198;9.920;2023-02-18T11:17:49;100420.59;;;10.41;100.00
13968;BME280;39536;52.198;9.920;2023-02-18T11:20:27;100398.09;;;10.38;100.00
13968;BME280;39536;52.198;9.920;2023-02-18T11:23:13;100399.97;;;10.35;100.00
13968;BME280;39536;52.198;9.920;2023-02-18T11:25:41;100412.25;;;10.31;100.00
13968;BME280;39536;52.198;9.920;2023-02-18T11:28:27;100413.25;;;10.26;100.00
13968;BME280;39536;52.198;9.920;2023-02-18T11:30:56;100398.69;;;10.20;100.00
13968;BME280;39536;52.198;9.920;2023-02-18T11:33:32;100409.09;;;10.20;100.00
13968;BME280;39536;52.198;9.920;2023-02-18T11:36:04;100402.97;;;10.21;100.00
13968;BME280;39536;52.198;9.920;2023-02-18T11:38:43;100410.16;;;10.14;100.00
13968;BME280;39536;52.198;9.920;2023-02-18T11:41:14;100395.56;;;10.09;100.00
13968;BME280;39536;52.198;9.920;2023-02-18T11:44:01;100405.03;;;10.11;100.00
13968;BME280;39536;52.198;9.920;2023-02-18T11:46:28;100411.16;;;10.10;100.00
13968;BME280;39536;52.198;9.920;2023-02-18T11:49:20;100421.78;;;10.03;100.00
13968;BME280;39536;52.198;9.920;2023-02-18T11:51:48;100413.97;;;10.04;100.00
13968;BME280;39536;52.198;9.920;2023-02-18T11:54:24;100402.63;;;10.05;100.00
13968;BME280;39536;52.198;9.920;2023-02-18T11:56:56;100406.25;;;10.01;100.00
13968;BME280;39536;52.198;9.920;2023-02-18T11:59:25;100414.09;;;10.00;100.00
13968;BME280;39536;52.198;9.920;2023-02-18T12:01:57;100402.81;;;10.01;100.00
13968;BME280;39536;52.198;9.920;2023-02-18T12:04:28;100428.22;;;9.92;100.00
13968;BME280;39536;52.198;9.920;2023-02-18T12:07:07;100417.19;;;9.84;100.00
13968;BME280;39536;52.198;9.920;2023-02-18T12:09:41;100411.88;;;9.87;100.00
13968;BME280;39536;52.198;9.920;2023-02-18T12:12:12;100385.88;;;9.87;100.00
13968;BME280;39536;52.198;9.920;2023-02-18T12:14:42;100422.16;;;9.92;100.00
13968;BME280;39536;52.198;9.920;2023-02-18T12:17:28;100390.88;;;9.93;100.00
13968;BME280;39536;52.198;9.920;2023-02-18T12:20:09;100400.19;;;10.01;100.00
13968;BME280;39536;52.198;9.920;2023-02-18T12:22:42;100395.00;;;10.01;100.00
13968;BME280;39536;52.198;9.920;2023-02-18T12:25:23;100409.75;;;10.00;100.00
13968;BME280;39536;52.198;9.920;2023-02-18T12:27:58;100402.94;;;9.96;100.00
13968;BME280;39536;52.198;9.920;2023-02-18T12:30:53;100405.69;;;9.91;100.00
13968;BME280;39536;52.198;9.920;2023-02-18T12:33:29;100411.00;;;9.88;100.00
13968;BME280;39536;52.198;9.920;2023-02-18T12:36:09;100401.56;;;9.84;100.00
13968;BME280;39536;52.198;9.920;2023-02-18T12:39:01;100405.09;;;9.83;100.00
13968;BME280;39536;52.198;9.920;2023-02-18T12:41:46;100406.09;;;9.79;100.00
13968;BME280;39536;52.198;9.920;2023-02-18T12:44:37;100420.94;;;9.76;100.00
13968;BME280;39536;52.198;9.920;2023-02-18T12:47:29;100435.53;;;9.80;100.00
13968;BME280;39536;52.198;9.920;2023-02-18T12:56:21;100430.41;;;9.78;100.00
13968;BME280;39536;52.198;9.920;2023-02-18T12:58:56;100428.88;;;9.71;100.00
13968;BME280;39536;52.198;9.920;2023-02-18T13:01:34;100446.03;;;9.77;100.00
13968;BME280;39536;52.198;9.920;2023-02-18T13:09:56;100431.09;;;9.83;100.00
13968;BME280;39536;52.198;9.920;2023-02-18T13:12:30;100432.00;;;9.82;100.00
13968;BME280;39536;52.198;9.920;2023-02-18T13:15:04;100448.41;;;9.84;100.00
13968;BME280;39536;52.198;9.920;2023-02-18T13:17:38;100419.69;;;9.87;100.00
13968;BME280;39536;52.198;9.920;2023-02-18T13:20:16;100413.63;;;9.87;100.00
13968;BME280;39536;52.198;9.920;2023-02-18T13:22:44;100431.16;;;9.82;100.00
13968;BME280;39536;52.198;9.920;2023-02-18T13:25:14;100434.44;;;9.87;100.00
13968;BME280;39536;52.198;9.920;2023-02-18T13:27:47;100438.97;;;9.82;100.00
13968;BME280;39536;52.198;9.920;2023-02-18T13:30:21;100439.75;;;9.84;100.00